Time;durP1;ratioP1;P1;durP2;ratioP2;P2;SDS_P1;SDS_P2;PMS_P1;PMS_P2;Temp;Humidity;BMP_temperature;BMP_pressure;BME280_temperature;BME280_humidity;BME280_pressure;Samples;Min_cycle;Max_cycle;Signal;HPM_P1;HPM_P2
2023/11/15 00:00:01;;;;;;;19.50;9.90;;;12.80;99.90;;;;;;5032314;28;20044;-71
2023/11/15 00:02:27;;;;;;;14.57;10.35;;;12.80;99.90;;;;;;5032295;28;20393;-70
2023/11/15 00:04:52;;;;;;;16.77;11.77;;;12.80;99.90;;;;;;5032258;28;20142;-70
2023/11/15 00:07:18;;;;;;;16.02;11.65;;;12.80;99.90;;;;;;5032170;28;20026;-70
2023/11/15 00:09:44;;;;;;;18.13;12.32;;;12.80;99.90;;;;;;5031959;28;20034;-70
2023/11/15 00:12:10;;;;;;;15.80;12.30;;;12.80;99.90;;;;;;5031794;28;20041;-70
2023/11/15 00:14:36;;;;;;;18.73;13.50;;;12.80;99.90;;;;;;5031891;28;20052;-69
2023/11/15 00:17:03;;;;;;;14.18;11.55;;;12.80;99.90;;;;;;5032254;28;20087;-70
2023/11/15 00:19:30;;;;;;;13.98;12.20;;;12.80;99.90;;;;;;5032187;28;20065;-70
2023/11/15 00:21:59;;;;;;;13.73;11.68;;;12.80;99.90;;;;;;5032482;28;20037;-69
2023/11/15 00:24:25;;;;;;;14.43;11.93;;;12.80;99.90;;;;;;5014405;28;20037;-71
2023/11/15 00:26:50;;;;;;;17.33;13.48;;;12.80;99.90;;;;;;5032074;28;20033;-70
2023/11/15 00:29:17;;;;;;;13.40;12.00;;;12.80;99.90;;;;;;5031990;28;20033;-70
2023/11/15 00:31:43;;;;;;;14.18;12.68;;;12.80;99.90;;;;;;5031905;28;20042;-70
2023/11/15 00:34:09;;;;;;;15.18;13.38;;;12.80;99.90;;;;;;5031876;28;20041;-68
2023/11/15 00:36:38;;;;;;;17.90;13.45;;;12.80;99.90;;;;;;5031514;28;20034;-70
2023/11/15 00:39:08;;;;;;;14.02;11.75;;;12.80;99.90;;;;;;5032424;28;20041;-70
2023/11/15 00:41:35;;;;;;;19.50;14.45;;;12.80;99.90;;;;;;5032157;28;20382;-70
2023/11/15 00:44:03;;;;;;;16.27;14.10;;;12.80;99.90;;;;;;5032237;28;20052;-70
2023/11/15 00:46:29;;;;;;;23.15;14.88;;;12.80;99.90;;;;;;5032177;28;20038;-70
2023/11/15 00:48:55;;;;;;;24.52;15.90;;;12.80;99.90;;;;;;5032133;28;20521;-69
2023/11/15 00:51:21;;;;;;;28.02;15.57;;;12.80;99.90;;;;;;5031970;28;20029;-70
2023/11/15 00:53:47;;;;;;;22.27;15.25;;;12.80;99.90;;;;;;5031713;28;20042;-70
2023/11/15 00:56:13;;;;;;;19.13;14.50;;;12.80;99.90;;;;;;5032347;28;20059;-70
2023/11/15 00:58:39;;;;;;;22.42;14.45;;;12.80;99.90;;;;;;5035561;28;20033;-70
2023/11/15 01:01:10;;;;;;;17.80;13.85;;;12.80;99.90;;;;;;5035404;28;20040;-69
2023/11/15 01:03:55;;;;;;;18.98;14.18;;;12.80;99.90;;;;;;5034947;28;20543;-69
2023/11/15 01:06:22;;;;;;;18.98;13.70;;;12.80;99.90;;;;;;5027819;28;20079;-69
2023/11/15 01:08:49;;;;;;;18.52;14.35;;;12.80;99.90;;;;;;5035398;28;20119;-70
2023/11/15 01:11:14;;;;;;;21.60;15.05;;;12.80;99.90;;;;;;5035052;28;20029;-69
2023/11/15 01:13:40;;;;;;;22.58;15.48;;;12.80;99.90;;;;;;4999307;28;20144;-70
2023/11/15 01:16:06;;;;;;;17.17;13.60;;;12.80;99.90;;;;;;5015474;28;20049;-69
2023/11/15 01:18:33;;;;;;;18.88;14.18;;;12.80;99.90;;;;;;4997319;28;20045;-70
2023/11/15 01:21:00;;;;;;;17.35;13.25;;;12.80;99.90;;;;;;5015066;28;20061;-70
2023/11/15 01:23:25;;;;;;;17.88;13.68;;;12.80;99.90;;;;;;5014907;28;20474;-70
2023/11/15 01:25:51;;;;;;;17.27;13.80;;;12.80;99.90;;;;;;5015240;28;20038;-70
2023/11/15 01:28:17;;;;;;;17.95;13.57;;;12.80;99.90;;;;;;5015153;28;20042;-70
2023/11/15 01:30:43;;;;;;;19.95;14.95;;;12.80;99.90;;;;;;5015043;28;20153;-70
2023/11/15 01:33:09;;;;;;;18.30;15.20;;;12.80;99.90;;;;;;5014825;28;20042;-71
2023/11/15 01:35:35;;;;;;;22.80;14.85;;;12.80;99.90;;;;;;5015213;28;20034;-70
2023/11/15 01:38:02;;;;;;;18.35;14.05;;;12.80;99.90;;;;;;5015107;28;20037;-71
2023/11/15 01:40:33;;;;;;;16.65;12.90;;;12.80;99.90;;;;;;5014967;28;20034;-70
2023/11/15 01:42:59;;;;;;;16.53;13.50;;;12.80;99.90;;;;;;5014975;28;20390;-69
2023/11/15 01:45:26;;;;;;;24.25;14.27;;;12.80;99.90;;;;;;5014861;28;20273;-70
2023/11/15 01:47:51;;;;;;;17.42;13.82;;;12.80;99.90;;;;;;5012333;28;20049;-71
2023/11/15 01:50:17;;;;;;;17.92;13.70;;;12.80;99.90;;;;;;5034564;28;20052;-69
2023/11/15 01:52:45;;;;;;;16.63;13.38;;;12.80;99.90;;;;;;5034257;28;20401;-69
2023/11/15 01:55:24;;;;;;;15.48;12.23;;;12.80;99.90;;;;;;5034183;28;20128;-70
2023/11/15 01:57:52;;;;;;;17.60;12.50;;;12.80;99.90;;;;;;5033276;28;20071;-70
2023/11/15 02:00:19;;;;;;;14.15;12.65;;;12.80;99.90;;;;;;5031832;28;20068;-71
2023/11/15 02:02:45;;;;;;;17.05;13.70;;;12.80;99.90;;;;;;5031229;28;20037;-71
2023/11/15 02:05:11;;;;;;;17.30;13.13;;;12.80;99.90;;;;;;5032285;28;20040;-70
2023/11/15 02:07:38;;;;;;;22.52;13.75;;;12.80;99.90;;;;;;5033294;28;20433;-70
2023/11/15 02:10:06;;;;;;;14.73;12.88;;;12.80;99.90;;;;;;5033804;28;20477;-71
2023/11/15 02:12:33;;;;;;;19.33;13.40;;;12.80;99.90;;;;;;5033837;28;20033;-71
2023/11/15 02:14:59;;;;;;;15.82;12.73;;;12.80;99.90;;;;;;5033897;28;20041;-70
2023/11/15 02:17:25;;;;;;;19.02;12.63;;;12.80;99.90;;;;;;5034114;28;20033;-71
2023/11/15 02:19:51;;;;;;;14.40;12.02;;;12.80;99.90;;;;;;5034133;28;20501;-71
2023/11/15 02:22:18;;;;;;;15.95;12.32;;;12.80;99.90;;;;;;5015885;28;20037;-70
2023/11/15 02:24:45;;;;;;;14.18;11.45;;;12.80;99.90;;;;;;5033805;28;20400;-71
2023/11/15 02:27:11;;;;;;;14.77;12.43;;;12.80;99.90;;;;;;5033971;28;20056;-70
2023/11/15 02:29:37;;;;;;;18.67;13.35;;;12.80;99.90;;;;;;5033425;28;20037;-70
2023/11/15 02:32:03;;;;;;;19.52;12.88;;;12.80;99.90;;;;;;5033543;28;20100;-70
2023/11/15 02:34:28;;;;;;;18.33;11.50;;;12.80;99.90;;;;;;5033490;28;20095;-70
2023/11/15 02:36:55;;;;;;;16.33;11.68;;;12.80;99.90;;;;;;5033380;28;20034;-69
2023/11/15 02:39:21;;;;;;;20.10;11.23;;;12.80;99.90;;;;;;5033738;28;20040;-70
2023/11/15 02:41:48;;;;;;;17.13;10.85;;;12.80;99.90;;;;;;5033449;28;20114;-70
2023/11/15 02:44:14;;;;;;;15.10;10.80;;;12.80;99.90;;;;;;5032977;28;20565;-70
2023/11/15 02:46:40;;;;;;;19.40;11.63;;;12.80;99.90;;;;;;5033430;28;20084;-70
2023/11/15 02:49:06;;;;;;;20.33;10.95;;;12.80;99.90;;;;;;5033359;28;20414;-71
2023/11/15 02:51:31;;;;;;;18.08;11.23;;;12.80;99.90;;;;;;5015735;28;20484;-70
2023/11/15 02:53:57;;;;;;;24.50;11.88;;;12.80;99.90;;;;;;5033059;28;20067;-70
2023/11/15 02:56:24;;;;;;;18.23;11.13;;;12.80;99.90;;;;;;5033273;28;20029;-70
2023/11/15 02:58:51;;;;;;;14.60;10.32;;;12.80;99.90;;;;;;5033365;28;20037;-70
2023/11/15 03:01:17;;;;;;;17.25;11.32;;;12.80;99.90;;;;;;5033189;28;20034;-69
2023/11/15 03:03:43;;;;;;;15.55;11.32;;;12.80;99.90;;;;;;5033107;28;20057;-69
2023/11/15 03:06:12;;;;;;;19.60;11.85;;;12.80;99.90;;;;;;5033113;28;20543;-70
2023/11/15 03:08:38;;;;;;;22.88;11.63;;;12.80;99.90;;;;;;5033039;28;20076;-70
2023/11/15 03:11:04;;;;;;;19.23;11.88;;;12.80;99.90;;;;;;5032885;28;20539;-70
2023/11/15 03:13:29;;;;;;;17.10;11.30;;;12.80;99.90;;;;;;5033178;28;20053;-70
2023/11/15 03:15:56;;;;;;;23.33;13.05;;;12.80;99.90;;;;;;5015251;28;20037;-70
2023/11/15 03:18:22;;;;;;;24.98;12.65;;;12.80;99.90;;;;;;5033070;28;20109;-70
2023/11/15 03:20:49;;;;;;;33.08;14.48;;;12.80;99.90;;;;;;5032480;28;20112;-70
2023/11/15 03:23:14;;;;;;;20.00;13.93;;;12.70;99.90;;;;;;5032823;28;20033;-69
2023/11/15 03:25:41;;;;;;;27.98;15.20;;;12.70;99.90;;;;;;5032587;28;20030;-69
2023/11/15 03:28:06;;;;;;;22.77;15.23;;;12.70;99.90;;;;;;5032799;28;20041;-69
2023/11/15 03:30:32;;;;;;;29.48;14.13;;;12.70;99.90;;;;;;5033082;28;20026;-69
2023/11/15 03:32:58;;;;;;;20.70;14.13;;;12.70;99.90;;;;;;5032687;28;20121;-71
2023/11/15 03:35:24;;;;;;;19.00;13.25;;;12.70;99.90;;;;;;5032994;28;20069;-71
2023/11/15 03:37:51;;;;;;;23.35;13.15;;;12.70;99.90;;;;;;5032831;28;20090;-71
2023/11/15 03:40:19;;;;;;;20.88;12.63;;;12.70;99.90;;;;;;5032662;28;20029;-70
2023/11/15 03:42:45;;;;;;;22.98;13.35;;;12.70;99.90;;;;;;5032605;28;20034;-70
2023/11/15 03:45:11;;;;;;;23.80;13.30;;;12.70;99.90;;;;;;5032272;28;20037;-71
2023/11/15 03:47:37;;;;;;;20.88;13.55;;;12.70;99.90;;;;;;5032630;28;20076;-71
2023/11/15 03:50:04;;;;;;;24.38;13.18;;;12.70;99.90;;;;;;5032090;28;20037;-71
2023/11/15 03:52:31;;;;;;;25.95;13.82;;;12.60;99.90;;;;;;5032517;28;20069;-70
2023/11/15 03:54:57;;;;;;;20.55;13.13;;;12.60;99.90;;;;;;5032377;28;20042;-72
2023/11/15 03:57:24;;;;;;;22.83;13.75;;;12.60;99.90;;;;;;5032630;28;20053;-71
2023/11/15 03:59:52;;;;;;;21.40;13.65;;;12.60;99.90;;;;;;5014776;28;20121;-70
2023/11/15 04:02:18;;;;;;;18.73;12.93;;;12.60;99.90;;;;;;5032498;28;20076;-71
2023/11/15 04:04:44;;;;;;;25.35;13.80;;;12.60;99.90;;;;;;5032175;28;20041;-71
2023/11/15 04:07:10;;;;;;;20.13;12.95;;;12.60;99.90;;;;;;5032477;28;20087;-71
2023/11/15 04:09:36;;;;;;;18.63;13.93;;;12.60;99.90;;;;;;5032652;28;20112;-71
2023/11/15 04:12:02;;;;;;;18.13;13.77;;;12.60;99.90;;;;;;5032213;28;20044;-71
2023/11/15 04:14:28;;;;;;;19.25;13.70;;;12.60;99.90;;;;;;5032282;28;20080;-72
2023/11/15 04:16:54;;;;;;;21.92;14.60;;;12.60;99.90;;;;;;5032415;28;20490;-72
2023/11/15 04:19:21;;;;;;;23.10;12.77;;;12.60;99.90;;;;;;5032350;28;20029;-71
2023/11/15 04:21:52;;;;;;;26.65;13.30;;;12.60;99.90;;;;;;5032414;28;20113;-70
2023/11/15 04:24:18;;;;;;;35.10;15.57;;;12.60;99.90;;;;;;5032316;28;20065;-71
2023/11/15 04:26:44;;;;;;;35.42;14.85;;;12.60;99.90;;;;;;5032303;28;20033;-72
2023/11/15 04:29:11;;;;;;;27.25;15.05;;;12.60;99.90;;;;;;5032213;28;20504;-71
2023/11/15 04:31:37;;;;;;;33.40;14.93;;;12.60;99.90;;;;;;5033391;28;20359;-71
2023/11/15 04:34:03;;;;;;;38.22;16.15;;;12.60;99.90;;;;;;5035906;28;20074;-70
2023/11/15 04:36:33;;;;;;;35.95;15.57;;;12.60;99.90;;;;;;5036023;28;20041;-71
2023/11/15 04:38:58;;;;;;;29.48;15.10;;;12.60;99.90;;;;;;5035872;28;20095;-71
2023/11/15 04:41:24;;;;;;;39.67;16.75;;;12.60;99.90;;;;;;5035864;28;20030;-71
2023/11/15 04:43:50;;;;;;;33.20;16.40;;;12.60;99.90;;;;;;5035937;28;20449;-71
2023/11/15 04:46:16;;;;;;;34.15;16.52;;;12.60;99.90;;;;;;5035805;28;20477;-71
2023/11/15 04:48:42;;;;;;;41.78;17.98;;;12.60;99.90;;;;;;5035516;28;20053;-70
2023/11/15 04:51:08;;;;;;;29.20;16.65;;;12.60;99.90;;;;;;5035840;28;20355;-70
2023/11/15 04:53:34;;;;;;;62.90;16.33;;;12.60;99.90;;;;;;5035397;28;20084;-71
2023/11/15 04:56:00;;;;;;;32.63;17.40;;;12.60;99.90;;;;;;5035689;28;20041;-71
2023/11/15 04:58:26;;;;;;;40.53;17.85;;;12.60;99.90;;;;;;5035669;28;20045;-71
2023/11/15 05:00:52;;;;;;;38.38;18.17;;;12.60;99.90;;;;;;5035696;28;20030;-70
2023/11/15 05:03:19;;;;;;;62.13;18.83;;;12.60;99.90;;;;;;5035564;28;20120;-70
2023/11/15 05:05:45;;;;;;;42.55;19.17;;;12.60;99.90;;;;;;5035521;28;20037;-70
2023/11/15 05:08:11;;;;;;;44.15;19.23;;;12.60;99.90;;;;;;5035640;28;20083;-71
2023/11/15 05:10:37;;;;;;;54.10;19.60;;;12.60;99.90;;;;;;5035327;28;20584;-71
2023/11/15 05:13:06;;;;;;;39.30;20.27;;;12.60;99.90;;;;;;5035606;28;20099;-71
2023/11/15 05:15:32;;;;;;;63.90;20.92;;;12.60;99.90;;;;;;5035637;28;20371;-71
2023/11/15 05:17:59;;;;;;;36.45;20.42;;;12.50;99.90;;;;;;5035232;28;20120;-71
2023/11/15 05:20:25;;;;;;;43.65;20.67;;;12.50;99.90;;;;;;5035414;28;20521;-70
2023/11/15 05:22:52;;;;;;;52.50;21.77;;;12.50;99.90;;;;;;5035226;28;20449;-71
2023/11/15 05:25:18;;;;;;;38.42;22.30;;;12.50;99.90;;;;;;5035262;28;20049;-71
2023/11/15 05:27:45;;;;;;;50.80;21.73;;;12.50;99.90;;;;;;5035568;28;20393;-71
2023/11/15 05:30:11;;;;;;;45.33;22.17;;;12.50;99.90;;;;;;5035148;28;20486;-71
2023/11/15 05:32:37;;;;;;;45.25;22.98;;;12.50;99.90;;;;;;5034936;28;20536;-71
2023/11/15 05:35:05;;;;;;;75.30;22.50;;;12.50;99.90;;;;;;5034747;28;20045;-70
2023/11/15 05:37:31;;;;;;;62.30;22.90;;;12.50;99.90;;;;;;5016942;28;20041;-71
2023/11/15 05:39:57;;;;;;;58.17;23.75;;;12.50;99.90;;;;;;5034538;28;20099;-71
2023/11/15 05:42:22;;;;;;;46.40;22.75;;;12.50;99.90;;;;;;5034006;28;20037;-70
2023/11/15 05:44:48;;;;;;;57.78;22.63;;;12.50;99.90;;;;;;5035096;28;20038;-71
2023/11/15 05:47:15;;;;;;;44.63;23.50;;;12.40;99.90;;;;;;5034519;28;20057;-71
2023/11/15 05:49:41;;;;;;;59.78;23.27;;;12.50;99.90;;;;;;5034755;28;20052;-71
2023/11/15 05:52:07;;;;;;;53.55;21.90;;;12.50;99.90;;;;;;5034742;28;20037;-70
2023/11/15 05:54:33;;;;;;;92.25;24.15;;;12.40;99.90;;;;;;5034545;28;20429;-72
2023/11/15 05:56:58;;;;;;;43.55;24.60;;;12.40;99.90;;;;;;5034523;28;20482;-71
2023/11/15 05:59:26;;;;;;;68.28;24.15;;;12.40;99.90;;;;;;5034327;28;20088;-70
2023/11/15 06:01:54;;;;;;;49.10;24.90;;;12.40;99.90;;;;;;5034049;28;20084;-71
2023/11/15 06:04:20;;;;;;;57.40;24.48;;;12.40;99.90;;;;;;5034301;28;20036;-71
2023/11/15 06:06:46;;;;;;;53.40;24.08;;;12.50;99.90;;;;;;5034208;28;20481;-71
2023/11/15 06:09:14;;;;;;;74.40;24.10;;;12.40;99.90;;;;;;5034098;28;20042;-72
2023/11/15 06:11:42;;;;;;;79.55;25.20;;;12.40;99.90;;;;;;5034274;28;20064;-71
2023/11/15 06:14:08;;;;;;;54.33;24.40;;;12.50;99.90;;;;;;5033973;28;20095;-71
2023/11/15 06:16:37;;;;;;;51.53;24.98;;;12.40;99.90;;;;;;5033826;28;20474;-71
2023/11/15 06:19:07;;;;;;;45.15;24.48;;;12.50;99.90;;;;;;5016027;28;20059;-70
2023/11/15 06:21:33;;;;;;;40.13;24.23;;;12.50;99.90;;;;;;5034099;28;20025;-71
2023/11/15 06:23:59;;;;;;;50.42;27.77;;;12.50;99.90;;;;;;5033800;28;20498;-71
2023/11/15 06:26:25;;;;;;;55.53;26.00;;;12.50;99.90;;;;;;5034114;28;20068;-71
2023/11/15 06:28:51;;;;;;;41.53;24.92;;;12.50;99.90;;;;;;5033911;28;20026;-71
2023/11/15 06:31:20;;;;;;;54.15;26.38;;;12.50;99.90;;;;;;5033851;28;20048;-69
2023/11/15 06:33:45;;;;;;;48.88;25.63;;;12.50;99.90;;;;;;5033393;28;20448;-71
2023/11/15 06:36:12;;;;;;;44.53;25.98;;;12.50;99.90;;;;;;5033341;28;20025;-71
2023/11/15 06:38:37;;;;;;;38.67;24.98;;;12.50;99.90;;;;;;5033620;28;20056;-71
2023/11/15 06:41:08;;;;;;;45.65;25.63;;;12.50;99.90;;;;;;5033549;28;20478;-69
2023/11/15 06:43:35;;;;;;;43.60;25.27;;;12.50;99.90;;;;;;5033433;28;20580;-71
2023/11/15 06:46:00;;;;;;;44.40;25.75;;;12.50;99.90;;;;;;5033541;28;20116;-71
2023/11/15 06:48:26;;;;;;;56.70;33.00;;;12.40;99.90;;;;;;5033048;28;20172;-71
2023/11/15 06:50:52;;;;;;;63.13;37.40;;;12.50;99.90;;;;;;5033396;28;20103;-70
2023/11/15 06:53:18;;;;;;;59.63;35.83;;;12.50;99.90;;;;;;5033237;28;20065;-70
2023/11/15 06:55:46;;;;;;;55.03;31.50;;;12.40;99.90;;;;;;5032709;28;20482;-71
2023/11/15 06:58:16;;;;;;;55.33;34.67;;;12.50;99.90;;;;;;5033433;28;20030;-71
2023/11/15 07:00:45;;;;;;;59.13;34.40;;;12.50;99.90;;;;;;5033249;28;20037;-71
2023/11/15 07:03:14;;;;;;;55.75;32.05;;;12.50;99.90;;;;;;5032939;28;20052;-71
2023/11/15 07:05:44;;;;;;;50.60;30.90;;;12.50;99.90;;;;;;5015139;28;20030;-71
2023/11/15 07:08:11;;;;;;;46.67;29.95;;;12.50;99.90;;;;;;5033147;28;20421;-71
2023/11/15 07:10:40;;;;;;;43.00;27.88;;;12.50;99.90;;;;;;5032747;28;20033;-72
2023/11/15 07:13:08;;;;;;;43.45;27.92;;;12.50;99.90;;;;;;5032910;28;20029;-71
2023/11/15 07:15:38;;;;;;;48.92;28.33;;;12.50;99.90;;;;;;5033169;28;20179;-73
2023/11/15 07:18:04;;;;;;;43.30;27.38;;;12.60;99.90;;;;;;5032437;28;20033;-71
2023/11/15 07:20:30;;;;;;;53.00;31.77;;;12.60;99.90;;;;;;5014583;28;20034;-71
2023/11/15 07:22:56;;;;;;;56.33;30.83;;;12.60;99.90;;;;;;5032414;28;20029;-71
2023/11/15 07:25:22;;;;;;;43.08;26.02;;;12.60;99.90;;;;;;5032313;28;20040;-72
2023/11/15 07:27:49;;;;;;;43.67;25.65;;;12.60;99.90;;;;;;5032750;28;20026;-71
2023/11/15 07:30:15;;;;;;;43.13;28.98;;;12.60;99.90;;;;;;5031279;28;20036;-71
2023/11/15 07:32:41;;;;;;;39.08;24.08;;;12.60;99.90;;;;;;5032860;28;20064;-68
2023/11/15 07:35:10;;;;;;;33.28;20.67;;;12.60;99.90;;;;;;5032531;28;20041;-68
2023/11/15 07:37:37;;;;;;;34.47;21.77;;;12.70;99.90;;;;;;5032515;28;20053;-68
2023/11/15 07:40:04;;;;;;;29.00;20.52;;;12.60;99.90;;;;;;5032814;28;20029;-68
2023/11/15 07:42:32;;;;;;;28.20;18.65;;;12.60;99.90;;;;;;5032730;28;20605;-69
2023/11/15 07:44:57;;;;;;;22.55;18.35;;;12.70;99.90;;;;;;5032897;28;20041;-68
2023/11/15 07:47:25;;;;;;;33.30;20.88;;;12.60;99.90;;;;;;5032181;28;20045;-70
2023/11/15 07:49:51;;;;;;;32.53;22.90;;;12.60;99.90;;;;;;5032097;28;20034;-72
2023/11/15 07:52:16;;;;;;;42.35;28.85;;;12.70;99.90;;;;;;5032220;28;20048;-69
2023/11/15 07:54:42;;;;;;;36.92;24.25;;;12.70;99.90;;;;;;5032136;28;20127;-68
2023/11/15 07:57:08;;;;;;;35.13;23.38;;;12.80;99.90;;;;;;5032441;28;20034;-71
2023/11/15 07:59:34;;;;;;;41.55;25.95;;;12.80;99.90;;;;;;5032023;28;20483;-72
2023/11/15 08:02:00;;;;;;;41.38;24.83;;;12.80;99.90;;;;;;5032184;28;20478;-70
2023/11/15 08:04:26;;;;;;;41.58;26.15;;;12.80;99.90;;;;;;5032124;28;20124;-70
2023/11/15 08:06:52;;;;;;;36.65;24.27;;;12.90;99.90;;;;;;5035533;28;20464;-70
2023/11/15 08:09:24;;;;;;;36.20;23.00;;;12.90;99.90;;;;;;5035885;28;20041;-70
2023/11/15 08:11:56;;;;;;;36.90;23.67;;;12.90;99.90;;;;;;5036163;28;20080;-70
2023/11/15 08:14:22;;;;;;;33.40;22.10;;;12.90;99.90;;;;;;5036151;28;20081;-69
2023/11/15 08:16:50;;;;;;;35.63;22.65;;;12.90;99.90;;;;;;5036053;28;20420;-69
2023/11/15 08:19:18;;;;;;;41.38;24.23;;;13.00;99.90;;;;;;5036277;28;20436;-70
2023/11/15 08:21:44;;;;;;;38.03;22.77;;;13.00;99.90;;;;;;5035468;28;20034;-68
2023/11/15 08:24:13;;;;;;;41.17;23.92;;;13.00;99.90;;;;;;5035807;28;20517;-68
2023/11/15 08:26:39;;;;;;;39.55;22.92;;;13.00;99.90;;;;;;5036304;28;20422;-68
2023/11/15 08:29:05;;;;;;;40.60;23.15;;;13.00;99.90;;;;;;5036208;28;20021;-68
2023/11/15 08:31:33;;;;;;;35.38;21.85;;;13.10;99.90;;;;;;5036056;28;20032;-68
2023/11/15 08:33:58;;;;;;;32.35;19.77;;;13.10;99.90;;;;;;5035911;28;20052;-68
2023/11/15 08:36:24;;;;;;;38.45;20.70;;;13.20;99.90;;;;;;5035908;28;20026;-68
2023/11/15 08:38:50;;;;;;;38.60;22.20;;;13.30;99.90;;;;;;5018095;28;20121;-68
2023/11/15 08:41:16;;;;;;;35.85;21.67;;;13.40;99.90;;;;;;5035933;28;20034;-68
2023/11/15 08:43:42;;;;;;;26.70;17.10;;;13.40;99.90;;;;;;5035732;28;20107;-68
2023/11/15 08:46:08;;;;;;;27.65;15.60;;;13.40;99.90;;;;;;5035832;28;20105;-68
2023/11/15 08:48:34;;;;;;;23.90;13.80;;;13.50;99.90;;;;;;5035411;28;20140;-68
2023/11/15 08:51:02;;;;;;;21.65;11.52;;;13.60;99.90;;;;;;5035604;28;20105;-68
2023/11/15 08:53:29;;;;;;;19.45;11.65;;;13.60;99.90;;;;;;5035528;28;20037;-68
2023/11/15 08:55:55;;;;;;;15.43;9.77;;;13.70;99.90;;;;;;5035391;28;20030;-67
2023/11/15 08:58:27;;;;;;;17.48;10.23;;;13.70;99.90;;;;;;5035574;28;20039;-68
2023/11/15 09:00:53;;;;;;;22.17;11.55;;;13.80;99.90;;;;;;5035525;28;20033;-68
2023/11/15 09:03:19;;;;;;;21.17;10.85;;;13.80;99.90;;;;;;5035891;28;20108;-68
2023/11/15 09:05:46;;;;;;;18.80;10.68;;;13.80;99.90;;;;;;5035188;28;20670;-68
2023/11/15 09:08:13;;;;;;;17.60;10.77;;;13.80;99.90;;;;;;5035193;28;20112;-68
2023/11/15 09:10:39;;;;;;;16.42;10.60;;;13.80;99.90;;;;;;5035122;28;20041;-69
2023/11/15 09:13:08;;;;;;;15.60;10.43;;;13.80;99.90;;;;;;5035637;28;20026;-69
2023/11/15 09:15:37;;;;;;;20.95;11.40;;;13.80;99.90;;;;;;5035593;28;20516;-69
2023/11/15 09:18:06;;;;;;;16.75;11.15;;;13.80;99.90;;;;;;5034635;28;20536;-69
2023/11/15 09:20:34;;;;;;;16.90;12.05;;;13.80;99.90;;;;;;5035086;28;20033;-69
2023/11/15 09:23:00;;;;;;;17.35;11.90;;;13.90;99.90;;;;;;5035276;28;20033;-69
2023/11/15 09:25:30;;;;;;;23.33;11.68;;;14.00;99.90;;;;;;5035484;28;20034;-69
2023/11/15 09:27:59;;;;;;;18.27;11.13;;;14.00;99.90;;;;;;5034582;28;20124;-69
2023/11/15 09:30:25;;;;;;;25.92;12.60;;;14.10;99.90;;;;;;5033072;28;20030;-69
2023/11/15 09:32:52;;;;;;;36.08;13.75;;;14.10;99.90;;;;;;5033013;28;20037;-69
2023/11/15 09:35:21;;;;;;;27.00;13.75;;;14.20;99.90;;;;;;5015056;28;20042;-68
2023/11/15 09:37:47;;;;;;;23.23;12.02;;;14.30;99.90;;;;;;5033370;28;20033;-68
2023/11/15 09:40:13;;;;;;;14.85;8.93;;;14.40;99.90;;;;;;5032812;28;20037;-68
2023/11/15 09:42:45;;;;;;;19.70;10.55;;;14.50;99.90;;;;;;5032159;28;20080;-68
2023/11/15 09:45:16;;;;;;;21.70;8.90;;;14.60;99.90;;;;;;5034650;28;20033;-68
2023/11/15 09:47:46;;;;;;;22.30;8.60;;;14.60;99.90;;;;;;5034712;28;20375;-68
2023/11/15 09:50:16;;;;;;;18.77;8.65;;;14.60;99.90;;;;;;5034620;28;20038;-67
2023/11/15 09:52:46;;;;;;;16.75;7.85;;;14.70;99.90;;;;;;5033059;28;20057;-68
2023/11/15 09:55:12;;;;;;;21.40;8.55;;;14.70;99.90;;;;;;5033150;28;20046;-68
2023/11/15 09:57:39;;;;;;;19.83;8.23;;;14.80;99.90;;;;;;5034218;28;20033;-68
2023/11/15 10:00:10;;;;;;;19.75;8.00;;;14.80;99.90;;;;;;5033803;28;20080;-68
2023/11/15 10:02:37;;;;;;;21.17;8.02;;;14.90;99.90;;;;;;5016426;28;20351;-68
2023/11/15 10:05:21;;;;;;;12.93;6.20;;;14.80;99.90;;;;;;5034077;28;20065;-68
2023/11/15 10:07:55;;;;;;;23.77;7.50;;;14.90;99.90;;;;;;5034294;28;20091;-68
2023/11/15 10:10:24;;;;;;;12.52;6.50;;;15.00;99.90;;;;;;5034431;28;20068;-68
2023/11/15 10:12:53;;;;;;;10.35;6.95;;;15.00;99.90;;;;;;5042270;23;20053;-68
2023/11/15 10:15:29;;;;;;;22.55;7.05;;;15.10;99.90;;;;;;5034270;28;20048;-68
2023/11/15 10:17:56;;;;;;;15.80;7.65;;;15.10;99.90;;;;;;5034243;28;20370;-68
2023/11/15 10:20:25;;;;;;;15.75;6.43;;;15.20;99.90;;;;;;5034344;28;20037;-68
2023/11/15 10:22:53;;;;;;;10.52;5.88;;;15.30;99.90;;;;;;5034087;28;20025;-68
2023/11/15 10:25:19;;;;;;;8.18;5.10;;;15.30;99.90;;;;;;5034246;28;20125;-68
2023/11/15 10:27:46;;;;;;;9.80;5.43;;;15.40;99.90;;;;;;5034260;28;20068;-68
2023/11/15 10:30:15;;;;;;;10.15;5.35;;;15.50;99.90;;;;;;5032866;28;20029;-68
2023/11/15 10:32:45;;;;;;;7.78;4.65;;;15.50;99.90;;;;;;5033842;28;20040;-68
2023/11/15 10:35:27;;;;;;;8.88;4.70;;;15.60;99.90;;;;;;5034022;28;20053;-68
2023/11/15 10:37:53;;;;;;;14.85;5.72;;;15.60;99.90;;;;;;5033989;28;20042;-67
2023/11/15 10:40:25;;;;;;;6.47;4.10;;;15.60;99.90;;;;;;5033891;28;20030;-68
2023/11/15 10:42:52;;;;;;;7.55;4.50;;;15.70;99.90;;;;;;5033907;28;20022;-68
2023/11/15 10:45:23;;;;;;;9.63;4.00;;;15.80;99.90;;;;;;5033681;28;20378;-68
2023/11/15 10:48:05;;;;;;;9.95;4.78;;;15.80;99.90;;;;;;5033941;28;20038;-68
2023/11/15 11:01:06;;;;;;;9.13;5.60;;;15.80;99.90;;;;;;5029912;28;20437;-68
2023/11/15 11:03:32;;;;;;;11.43;5.68;;;16.10;99.90;;;;;;5029653;28;20029;-69
2023/11/15 11:06:08;;;;;;;10.88;4.75;;;16.10;99.90;;;;;;5029826;28;20115;-68
2023/11/15 11:08:51;;;;;;;11.73;4.85;;;16.10;99.90;;;;;;5029897;28;20103;-68
2023/11/15 11:11:52;;;;;;;7.18;4.30;;;16.20;99.90;;;;;;5030064;28;20375;-68
2023/11/15 11:14:26;;;;;;;14.38;5.05;;;16.30;99.90;;;;;;5026926;28;20503;-68
2023/11/15 11:16:53;;;;;;;16.33;5.38;;;16.30;99.90;;;;;;5029506;28;20022;-68
2023/11/15 11:19:24;;;;;;;11.18;4.90;;;16.40;99.90;;;;;;5029826;28;20021;-68
2023/11/15 11:24:25;;;;;;;9.63;4.65;;;16.40;99.90;;;;;;5029696;28;20112;-70
2023/11/15 11:26:52;;;;;;;15.20;6.25;;;16.50;99.90;;;;;;5029706;28;20104;-70
2023/11/15 11:29:18;;;;;;;8.40;4.72;;;16.50;99.90;;;;;;5029143;28;20036;-70
2023/11/15 11:32:31;;;;;;;9.27;4.82;;;16.50;99.90;;;;;;5029284;28;20022;-69
2023/11/15 11:35:06;;;;;;;;;;;16.50;99.90;;;;;;5029871;28;20487;-71
2023/11/15 11:37:47;;;;;;;13.15;9.05;;;16.50;99.90;;;;;;5026745;28;19910;-69
2023/11/15 11:40:16;;;;;;;13.90;11.13;;;16.50;99.90;;;;;;5024809;28;20029;-72
2023/11/15 11:42:43;;;;;;;12.63;11.05;;;16.50;99.90;;;;;;5025626;28;20097;-70
2023/11/15 11:45:11;;;;;;;15.48;11.43;;;16.50;99.90;;;;;;5025739;28;20348;-68
2023/11/15 11:47:42;;;;;;;13.80;11.38;;;16.40;99.90;;;;;;5027001;28;20087;-70
2023/11/15 11:50:08;;;;;;;14.68;11.80;;;16.50;99.90;;;;;;5026253;28;20507;-69
2023/11/15 11:52:39;;;;;;;20.52;12.30;;;16.50;99.90;;;;;;5028525;28;20124;-70
2023/11/15 11:55:06;;;;;;;16.67;11.75;;;16.50;99.90;;;;;;5028586;28;20022;-70
2023/11/15 11:57:33;;;;;;;14.27;12.05;;;16.40;99.90;;;;;;5028923;28;20072;-69
2023/11/15 12:00:13;;;;;;;17.75;12.70;;;16.50;99.90;;;;;;5026648;28;20053;-69
2023/11/15 12:02:43;;;;;;;17.13;12.68;;;16.50;99.90;;;;;;5015873;28;20161;-69
2023/11/15 12:05:13;;;;;;;16.02;12.85;;;16.50;99.90;;;;;;5015579;28;20101;-70
2023/11/15 12:07:43;;;;;;;16.75;13.40;;;16.50;99.90;;;;;;5015803;28;20033;-70
2023/11/15 12:10:11;;;;;;;18.08;11.98;;;16.50;99.90;;;;;;5015334;28;20062;-70
2023/11/15 12:12:37;;;;;;;18.52;12.45;;;16.50;99.90;;;;;;5015248;28;20017;-70
2023/11/15 12:15:13;;;;;;;16.17;11.50;;;16.50;99.90;;;;;;5015071;28;20490;-69
2023/11/15 12:17:44;;;;;;;17.58;12.45;;;16.50;99.90;;;;;;5014656;28;20026;-70
2023/11/15 12:20:12;;;;;;;18.57;12.37;;;16.50;99.90;;;;;;5012503;28;20494;-70
2023/11/15 12:22:43;;;;;;;19.85;12.02;;;16.40;99.90;;;;;;5014469;28;20026;-70
2023/11/15 12:25:15;;;;;;;17.92;12.20;;;16.40;99.90;;;;;;5012207;28;20484;-70
2023/11/15 12:27:42;;;;;;;14.48;10.75;;;16.40;99.90;;;;;;5015079;28;20026;-70
2023/11/15 12:30:09;;;;;;;16.13;11.35;;;16.40;99.90;;;;;;5014990;28;20494;-70
2023/11/15 12:32:43;;;;;;;15.00;11.13;;;16.40;99.90;;;;;;5014906;28;20037;-70
2023/11/15 12:35:12;;;;;;;17.95;11.18;;;16.40;99.90;;;;;;5014971;28;20068;-70
2023/11/15 12:37:38;;;;;;;18.77;11.20;;;16.40;99.90;;;;;;5014974;28;20080;-70
2023/11/15 12:40:22;;;;;;;14.90;10.38;;;16.40;99.90;;;;;;5014793;28;20029;-70
2023/11/15 12:42:48;;;;;;;14.30;9.95;;;16.30;99.90;;;;;;5014862;28;20068;-70